Time;durP1;ratioP1;P1;durP2;ratioP2;P2;SDS_P1;SDS_P2;PMS_P1;PMS_P2;Temp;Humidity;BMP_temperature;BMP_pressure;BME280_temperature;BME280_humidity;BME280_pressure;Samples;Min_cycle;Max_cycle;Signal;HPM_P1;HPM_P2
2023/10/17 00:01:46;;;;;;;4.57;4.13;;;;;;;;;;5015212;28;20279;-53
2023/10/17 00:06:44;;;;;;;4.37;4.00;;;;;;;;;;5015421;28;20189;-53
2023/10/17 00:09:10;;;;;;;4.60;4.20;;;;;;;;;;5015071;28;20204;-53
2023/10/17 00:12:25;;;;;;;4.57;4.00;;;;;;;;;;5015075;28;20205;-53
2023/10/17 00:14:27;;;;;;;4.50;4.07;;;;;;;;;;5011961;28;20272;-55
2023/10/17 00:16:57;;;;;;;4.17;3.87;;;;;;;;;;5014858;28;20206;-55
2023/10/17 00:19:26;;;;;;;4.83;4.13;;;;;;;;;;5014952;28;20251;-55
2023/10/17 00:21:52;;;;;;;4.27;3.90;;;;;;;;;;5014681;28;20236;-55
2023/10/17 00:24:19;;;;;;;4.80;3.97;;;;;;;;;;5014978;28;20208;-55
2023/10/17 00:26:47;;;;;;;4.53;3.77;;;;;;;;;;5014982;28;20202;-55
2023/10/17 00:29:14;;;;;;;5.20;4.70;;;;;;;;;;5014877;28;20209;-55
2023/10/17 00:31:44;;;;;;;4.57;4.17;;;;;;;;;;5014609;28;20508;-55
2023/10/17 00:34:13;;;;;;;5.00;4.50;;;;;;;;;;5014834;28;20233;-55
2023/10/17 00:36:47;;;;;;;5.13;4.63;;;;;;;;;;5014524;28;20198;-55
2023/10/17 00:39:16;;;;;;;4.80;4.17;;;;;;;;;;5014799;28;20224;-55
2023/10/17 00:44:30;;;;;;;5.30;4.47;;;;;;;;;;5014532;28;20234;-55
2023/10/17 00:46:58;;;;;;;5.17;4.67;;;;;;;;;;5014420;28;20221;-55
2023/10/17 00:49:29;;;;;;;5.13;4.63;;;;;;;;;;5014233;28;20822;-55
2023/10/17 00:51:55;;;;;;;5.20;4.70;;;;;;;;;;5014141;28;20675;-55
2023/10/17 00:54:24;;;;;;;5.30;4.80;;;;;;;;;;5014273;28;20207;-54
2023/10/17 00:56:50;;;;;;;5.50;5.00;;;;;;;;;;5014210;28;20288;-54
2023/10/17 00:59:16;;;;;;;5.87;5.13;;;;;;;;;;5014369;28;20660;-54
2023/10/17 01:01:42;;;;;;;7.43;5.20;;;;;;;;;;5012450;28;20197;-54
2023/10/17 01:04:14;;;;;;;5.53;5.03;;;;;;;;;;5014065;28;20655;-54
2023/10/17 01:06:41;;;;;;;5.10;4.67;;;;;;;;;;5013981;28;20185;-54
2023/10/17 01:09:28;;;;;;;5.67;5.17;;;;;;;;;;5014011;28;20205;-54
2023/10/17 01:11:57;;;;;;;5.13;4.50;;;;;;;;;;5013687;28;20687;-54
2023/10/17 01:14:23;;;;;;;5.80;5.23;;;;;;;;;;5014202;28;20273;-54
2023/10/17 01:16:51;;;;;;;6.60;5.70;;;;;;;;;;5014196;28;20538;-54
2023/10/17 01:19:19;;;;;;;5.57;5.07;;;;;;;;;;5012489;28;20276;-54
2023/10/17 01:21:45;;;;;;;6.43;5.83;;;;;;;;;;5010577;28;20201;-54
2023/10/17 01:24:12;;;;;;;6.03;5.43;;;;;;;;;;5007158;28;20259;-54
2023/10/17 01:26:39;;;;;;;5.27;4.60;;;;;;;;;;5012161;28;20204;-54
2023/10/17 01:29:11;;;;;;;6.47;5.80;;;;;;;;;;5008709;28;20205;-54
2023/10/17 01:31:39;;;;;;;5.47;4.77;;;;;;;;;;5006996;28;20248;-54
2023/10/17 01:34:08;;;;;;;5.27;4.77;;;;;;;;;;5013727;28;20586;-54
2023/10/17 01:36:34;;;;;;;5.90;5.30;;;;;;;;;;5006878;28;20205;-55
2023/10/17 01:39:00;;;;;;;5.07;4.57;;;;;;;;;;5004275;28;20236;-54
2023/10/17 01:41:27;;;;;;;4.80;4.40;;;;;;;;;;5010122;28;20217;-55
2023/10/17 01:43:53;;;;;;;5.20;4.73;;;;;;;;;;5010211;28;20225;-54
2023/10/17 01:46:22;;;;;;;6.23;5.03;;;;;;;;;;5004951;28;20630;-54
2023/10/17 01:48:49;;;;;;;5.10;4.60;;;;;;;;;;5008360;28;20205;-54
2023/10/17 01:51:15;;;;;;;5.20;4.70;;;;;;;;;;5011804;28;20562;-55
2023/10/17 01:53:43;;;;;;;5.13;4.73;;;;;;;;;;5006390;28;20236;-55
2023/10/17 01:56:15;;;;;;;5.30;4.80;;;;;;;;;;5006508;28;20202;-55
2023/10/17 01:58:46;;;;;;;5.03;4.53;;;;;;;;;;5003098;28;20197;-54
2023/10/17 02:01:14;;;;;;;4.90;4.40;;;;;;;;;;5003137;28;20186;-54
2023/10/17 02:03:40;;;;;;;4.70;4.30;;;;;;;;;;5004921;28;20536;-54
2023/10/17 02:06:13;;;;;;;4.80;4.40;;;;;;;;;;5003837;28;20194;-55
2023/10/17 02:08:40;;;;;;;4.87;4.47;;;;;;;;;;5004577;28;20193;-55
2023/10/17 02:11:09;;;;;;;4.80;4.40;;;;;;;;;;5002707;28;20276;-54
2023/10/17 02:13:36;;;;;;;5.30;4.80;;;;;;;;;;5006147;28;20241;-55
2023/10/17 02:16:04;;;;;;;4.97;4.57;;;;;;;;;;5002729;28;20572;-55
2023/10/17 02:18:30;;;;;;;5.00;4.60;;;;;;;;;;5002874;28;20244;-55
2023/10/17 02:21:04;;;;;;;5.83;5.23;;;;;;;;;;5004522;28;20221;-55
2023/10/17 02:23:34;;;;;;;5.70;5.20;;;;;;;;;;5006351;28;20268;-55
2023/10/17 02:26:08;;;;;;;6.13;5.50;;;;;;;;;;5004285;28;20424;-55
2023/10/17 02:28:44;;;;;;;5.73;5.23;;;;;;;;;;5007802;28;20199;-55
2023/10/17 02:31:12;;;;;;;5.77;5.27;;;;;;;;;;5004114;28;20232;-55
2023/10/17 02:33:41;;;;;;;7.63;5.13;;;;;;;;;;5005955;28;20229;-54
2023/10/17 02:36:16;;;;;;;5.00;4.53;;;;;;;;;;5000668;28;20247;-54
2023/10/17 02:38:43;;;;;;;5.03;4.53;;;;;;;;;;5005844;28;20236;-54
2023/10/17 02:41:18;;;;;;;4.90;4.50;;;;;;;;;;5002327;28;20686;-55
2023/10/17 02:43:45;;;;;;;4.93;4.53;;;;;;;;;;5002503;28;20440;-54
2023/10/17 02:46:14;;;;;;;4.83;4.33;;;;;;;;;;5000589;28;20231;-54
2023/10/17 02:48:40;;;;;;;5.10;4.60;;;;;;;;;;5000507;28;20189;-55
2023/10/17 02:53:50;;;;;;;4.80;4.30;;;;;;;;;;5002553;28;20222;-55
2023/10/17 02:56:19;;;;;;;4.27;3.87;;;;;;;;;;5002289;28;20437;-55
2023/10/17 02:58:50;;;;;;;4.43;4.10;;;;;;;;;;5000550;28;20202;-54
2023/10/17 03:01:18;;;;;;;5.30;4.80;;;;;;;;;;5003905;28;20198;-55
2023/10/17 03:03:49;;;;;;;4.97;4.40;;;;;;;;;;5000438;28;20228;-54
2023/10/17 03:06:18;;;;;;;5.73;5.23;;;;;;;;;;5002176;28;20799;-54
2023/10/17 03:08:51;;;;;;;5.33;4.83;;;;;;;;;;5000672;28;20221;-54
2023/10/17 03:11:17;;;;;;;5.20;4.80;;;;;;;;;;5000323;28;20202;-54
2023/10/17 03:13:44;;;;;;;5.37;4.87;;;;;;;;;;5000185;28;20237;-54
2023/10/17 03:16:26;;;;;;;5.30;4.80;;;;;;;;;;5003477;28;20444;-54
2023/10/17 03:18:57;;;;;;;5.30;4.90;;;;;;;;;;5000582;28;20674;-53
2023/10/17 03:21:33;;;;;;;5.60;5.00;;;;;;;;;;5001813;28;20444;-54
2023/10/17 03:24:05;;;;;;;4.93;4.53;;;;;;;;;;5000068;28;20202;-54
2023/10/17 03:26:39;;;;;;;5.53;5.03;;;;;;;;;;4998541;28;20499;-54
2023/10/17 03:29:11;;;;;;;5.07;4.57;;;;;;;;;;5000000;28;20429;-54
2023/10/17 03:31:38;;;;;;;5.20;4.70;;;;;;;;;;4999875;28;20460;-54
2023/10/17 03:34:06;;;;;;;5.33;4.43;;;;;;;;;;4999856;28;20312;-54
2023/10/17 03:36:49;;;;;;;4.40;4.00;;;;;;;;;;5000084;28;20440;-54
2023/10/17 03:39:20;;;;;;;5.70;4.70;;;;;;;;;;5001721;28;20460;-54
2023/10/17 03:41:46;;;;;;;6.43;5.83;;;;;;;;;;5003468;28;20260;-54
2023/10/17 03:44:18;;;;;;;7.80;7.10;;;;;;;;;;4998500;28;20559;-54
2023/10/17 03:46:48;;;;;;;8.97;8.17;;;;;;;;;;4999956;28;20256;-54
2023/10/17 03:49:18;;;;;;;8.40;7.70;;;;;;;;;;5001450;28;20436;-54
2023/10/17 03:51:46;;;;;;;9.30;8.50;;;;;;;;;;4999926;28;20436;-54
2023/10/17 03:54:17;;;;;;;8.87;8.10;;;;;;;;;;5002963;28;20714;-54
2023/10/17 03:56:49;;;;;;;7.97;7.27;;;;;;;;;;4999930;28;20838;-54
2023/10/17 04:01:47;;;;;;;8.90;8.10;;;;;;;;;;4998178;28;20256;-53
2023/10/17 04:04:13;;;;;;;8.63;7.83;;;;;;;;;;4997821;28;20807;-54
2023/10/17 04:06:42;;;;;;;10.87;9.87;;;;;;;;;;4999854;28;20292;-54
2023/10/17 04:11:49;;;;;;;16.20;14.80;;;;;;;;;;4999815;28;20622;-53
2023/10/17 04:14:17;;;;;;;16.13;14.67;;;;;;;;;;4997837;28;21000;-54
2023/10/17 04:16:44;;;;;;;13.33;12.13;;;;;;;;;;5003058;28;20439;-54
2023/10/17 04:19:17;;;;;;;13.37;12.17;;;;;;;;;;5011258;28;20788;-54
2023/10/17 04:21:46;;;;;;;24.47;13.70;;;;;;;;;;5011522;28;20458;-54
2023/10/17 04:24:26;;;;;;;12.40;8.27;;;;;;;;;;5004593;28;20433;-54
2023/10/17 04:27:05;;;;;;;7.13;6.17;;;;;;;;;;4997969;28;20619;-54
2023/10/17 04:29:31;;;;;;;8.30;6.77;;;;;;;;;;5002761;28;20527;-54
2023/10/17 04:31:57;;;;;;;6.80;5.47;;;;;;;;;;5001218;28;20479;-54
2023/10/17 04:34:26;;;;;;;5.20;4.40;;;;;;;;;;5002991;28;20530;-54
2023/10/17 04:36:56;;;;;;;6.53;5.00;;;;;;;;;;5003108;28;20202;-53
2023/10/17 04:44:20;;;;;;;5.93;4.87;;;;;;;;;;5002825;28;20429;-54
2023/10/17 04:46:51;;;;;;;5.37;4.90;;;;;;;;;;5001149;28;20432;-54
2023/10/17 04:49:19;;;;;;;4.90;4.40;;;;;;;;;;5004351;28;20972;-54
2023/10/17 04:51:45;;;;;;;5.20;4.70;;;;;;;;;;5001095;28;20459;-54
2023/10/17 04:54:30;;;;;;;5.30;4.80;;;;;;;;;;5002617;28;20606;-54
2023/10/17 04:56:59;;;;;;;4.90;4.50;;;;;;;;;;5004421;28;20444;-54
2023/10/17 06:19:21;;;;;;;3.80;3.50;;;;;;;;;;4999470;28;20441;-55
2023/10/17 06:30:29;;;;;;;3.27;2.97;;;;;;;;;;4999077;28;20432;-54
2023/10/17 06:33:16;;;;;;;3.30;3.00;;;;;;;;;;4998977;28;20579;-54
2023/10/17 06:35:44;;;;;;;3.17;2.93;;;;;;;;;;5000808;28;20439;-54
2023/10/17 06:38:10;;;;;;;8.90;3.67;;;;;;;;;;5000624;28;20444;-54
2023/10/17 06:40:45;;;;;;;3.40;3.10;;;;;;;;;;5000794;28;20797;-54
2023/10/17 06:43:17;;;;;;;3.23;2.93;;;;;;;;;;5002181;28;20510;-54
2023/10/17 06:46:11;;;;;;;4.33;3.37;;;;;;;;;;5000589;28;20519;-54
2023/10/17 06:48:48;;;;;;;3.20;3.00;;;;;;;;;;5000611;28;20440;-54
2023/10/17 06:53:47;;;;;;;3.40;3.10;;;;;;;;;;5000772;28;21084;-54
2023/10/17 06:56:14;;;;;;;3.40;3.10;;;;;;;;;;5000344;28;20440;-54
2023/10/17 06:58:40;;;;;;;3.30;3.00;;;;;;;;;;5000456;28;20687;-54
2023/10/17 07:01:19;;;;;;;3.57;3.27;;;;;;;;;;5000345;28;20447;-54
2023/10/17 07:03:46;;;;;;;3.37;3.07;;;;;;;;;;5000388;28;20774;-54
2023/10/17 07:06:16;;;;;;;3.40;3.10;;;;;;;;;;4998473;28;20440;-54
2023/10/17 07:08:46;;;;;;;3.50;3.20;;;;;;;;;;5000176;28;20441;-54
2023/10/17 07:13:56;;;;;;;5.40;3.40;;;;;;;;;;4998451;28;20883;-54
2023/10/17 07:16:26;;;;;;;6.27;4.53;;;;;;;;;;4998264;28;20440;-54
2023/10/17 07:18:53;;;;;;;4.10;3.70;;;;;;;;;;4999869;28;20437;-54
2023/10/17 07:21:23;;;;;;;6.97;3.60;;;;;;;;;;4999971;28;20439;-54
2023/10/17 07:23:53;;;;;;;3.33;3.03;;;;;;;;;;5000182;28;20513;-54
2023/10/17 07:28:55;;;;;;;4.17;3.77;;;;;;;;;;4999502;28;20428;-54
2023/10/17 07:31:22;;;;;;;3.23;2.93;;;;;;;;;;4999882;28;20462;-54
2023/10/17 07:33:53;;;;;;;3.60;3.10;;;;;;;;;;5003337;28;20492;-54
2023/10/17 07:36:21;;;;;;;3.43;3.10;;;;;;;;;;4998464;28;20853;-54
2023/10/17 07:38:47;;;;;;;3.20;2.70;;;;;;;;;;5001705;28;20453;-54
2023/10/17 07:41:13;;;;;;;3.40;3.10;;;;;;;;;;4999852;28;20436;-54
2023/10/17 07:43:44;;;;;;;3.37;3.00;;;;;;;;;;4998073;28;20308;-54
2023/10/17 07:46:15;;;;;;;3.20;3.00;;;;;;;;;;4999809;28;20436;-54
2023/10/17 07:48:48;;;;;;;3.37;3.07;;;;;;;;;;4997985;28;20455;-54
2023/10/17 07:51:14;;;;;;;3.10;2.90;;;;;;;;;;4998097;28;20206;-54
2023/10/17 07:53:47;;;;;;;3.40;3.03;;;;;;;;;;4999750;28;20255;-54
2023/10/17 07:56:21;;;;;;;3.20;2.90;;;;;;;;;;4999899;28;20292;-54
2023/10/17 07:58:56;;;;;;;3.87;3.30;;;;;;;;;;4999818;28;20209;-54
2023/10/17 08:01:31;;;;;;;3.33;3.03;;;;;;;;;;4999644;28;20201;-53
2023/10/17 08:03:57;;;;;;;3.23;2.93;;;;;;;;;;5001991;28;20197;-56
2023/10/17 08:06:28;;;;;;;3.07;2.87;;;;;;;;;;5003566;28;20205;-53
2023/10/17 08:08:58;;;;;;;6.00;4.87;;;;;;;;;;5003441;28;20197;-56
2023/10/17 08:11:28;;;;;;;6.27;4.70;;;;;;;;;;5001548;28;20260;-57
2023/10/17 08:13:55;;;;;;;5.10;4.60;;;;;;;;;;5003256;28;20235;-58
2023/10/17 08:16:25;;;;;;;4.00;3.60;;;;;;;;;;5002460;28;20619;-57
2023/10/17 08:24:26;;;;;;;3.20;2.90;;;;;;;;;;5015163;28;20193;-57
2023/10/17 08:27:13;;;;;;;4.70;4.30;;;;;;;;;;5015074;28;20575;-57
2023/10/17 08:29:38;;;;;;;6.50;3.90;;;;;;;;;;5014497;28;20209;-56
2023/10/17 08:32:29;;;;;;;3.50;3.20;;;;;;;;;;5014814;28;20230;-57
2023/10/17 08:35:00;;;;;;;3.20;2.87;;;;;;;;;;5014387;28;20233;-57
2023/10/17 08:37:28;;;;;;;3.90;2.87;;;;;;;;;;5014592;28;20248;-57
2023/10/17 08:39:57;;;;;;;2.87;2.50;;;;;;;;;;5014723;28;20205;-57
2023/10/17 08:44:55;;;;;;;3.27;2.60;;;;;;;;;;5014823;28;20193;-57
2023/10/17 08:47:25;;;;;;;2.67;2.47;;;;;;;;;;5014050;28;20216;-57
2023/10/17 08:49:51;;;;;;;3.37;2.50;;;;;;;;;;5012502;28;20288;-57
2023/10/17 08:52:23;;;;;;;4.10;2.57;;;;;;;;;;5012879;28;20240;-57
2023/10/17 08:54:49;;;;;;;3.87;2.60;;;;;;;;;;5014547;28;20308;-57
2023/10/17 08:57:16;;;;;;;4.53;2.90;;;;;;;;;;5014520;28;20608;-57
2023/10/17 09:02:28;;;;;;;4.37;3.03;;;;;;;;;;5014237;28;20197;-57
2023/10/17 09:05:00;;;;;;;3.17;2.60;;;;;;;;;;5014178;28;20205;-57
2023/10/17 09:07:32;;;;;;;5.00;2.40;;;;;;;;;;5014350;28;20251;-57
2023/10/17 09:10:03;;;;;;;3.80;2.67;;;;;;;;;;5014419;28;20202;-57
2023/10/17 09:12:42;;;;;;;4.60;2.37;;;;;;;;;;5014091;28;20204;-56
2023/10/17 09:15:27;;;;;;;3.67;2.50;;;;;;;;;;5013952;28;20256;-58
2023/10/17 09:18:00;;;;;;;4.40;2.60;;;;;;;;;;5003161;28;20213;-56
2023/10/17 09:20:34;;;;;;;6.17;2.23;;;;;;;;;;4994212;28;20574;-56
2023/10/17 09:23:00;;;;;;;3.57;1.77;;;;;;;;;;4994630;28;20194;-57
2023/10/17 09:25:26;;;;;;;2.77;1.90;;;;;;;;;;4994406;28;20197;-56
2023/10/17 09:27:54;;;;;;;5.57;2.00;;;;;;;;;;4992533;28;20190;-55
2023/10/17 09:30:23;;;;;;;2.70;1.77;;;;;;;;;;4990782;28;20265;-56
2023/10/17 09:32:49;;;;;;;4.47;1.90;;;;;;;;;;4992464;28;20692;-56
2023/10/17 09:35:16;;;;;;;2.47;1.53;;;;;;;;;;4994391;28;20205;-56
2023/10/17 09:37:43;;;;;;;3.57;1.63;;;;;;;;;;4991080;28;20198;-56
2023/10/17 09:40:13;;;;;;;2.43;1.33;;;;;;;;;;4989148;28;20525;-56
2023/10/17 09:42:40;;;;;;;4.67;1.63;;;;;;;;;;4991484;28;20566;-56
2023/10/17 09:45:09;;;;;;;5.30;1.53;;;;;;;;;;4991716;28;20206;-56
2023/10/17 09:47:38;;;;;;;3.83;1.50;;;;;;;;;;4993070;28;20289;-56
2023/10/17 09:50:08;;;;;;;4.57;1.80;;;;;;;;;;4993529;28;20205;-56
2023/10/17 09:52:34;;;;;;;4.57;1.47;;;;;;;;;;4991905;28;20207;-56
2023/10/17 09:55:04;;;;;;;2.80;1.60;;;;;;;;;;4993648;28;20235;-56
2023/10/17 09:57:32;;;;;;;3.23;1.30;;;;;;;;;;4993800;28;20208;-56
2023/10/17 10:00:05;;;;;;;3.00;1.60;;;;;;;;;;4993535;28;20198;-56
2023/10/17 10:02:35;;;;;;;4.40;1.60;;;;;;;;;;4993482;28;20205;-56
2023/10/17 10:05:18;;;;;;;2.43;1.30;;;;;;;;;;4993494;28;20207;-56
2023/10/17 10:07:44;;;;;;;3.13;1.50;;;;;;;;;;4993288;28;20198;-56
2023/10/17 10:10:10;;;;;;;3.23;1.50;;;;;;;;;;4993348;28;20566;-56
2023/10/17 10:12:51;;;;;;;3.73;1.33;;;;;;;;;;4993071;28;20233;-56
2023/10/17 10:15:32;;;;;;;2.83;1.20;;;;;;;;;;4993086;28;20301;-59
2023/10/17 10:17:59;;;;;;;4.43;1.40;;;;;;;;;;4992982;28;20202;-56
2023/10/17 10:20:25;;;;;;;2.23;1.00;;;;;;;;;;4993176;28;20210;-56
2023/10/17 10:22:52;;;;;;;2.97;1.27;;;;;;;;;;4993127;28;20265;-56
2023/10/17 10:25:20;;;;;;;1.77;0.93;;;;;;;;;;4992796;28;20201;-56
2023/10/17 10:27:46;;;;;;;2.53;1.00;;;;;;;;;;4992848;28;20199;-57
2023/10/17 10:30:31;;;;;;;4.50;1.40;;;;;;;;;;4992841;28;20198;-57
2023/10/17 10:32:59;;;;;;;1.97;1.23;;;;;;;;;;4992673;28;20312;-57
2023/10/17 10:35:26;;;;;;;3.73;1.30;;;;;;;;;;4992824;28;20233;-57
2023/10/17 10:37:54;;;;;;;3.47;1.23;;;;;;;;;;4992704;28;20261;-57
2023/10/17 10:40:24;;;;;;;2.57;1.10;;;;;;;;;;4992730;28;20247;-57
2023/10/17 10:42:51;;;;;;;3.23;1.20;;;;;;;;;;4993029;28;20245;-57
2023/10/17 10:45:40;;;;;;;2.83;1.33;;;;;;;;;;4993185;28;20194;-55
2023/10/17 10:48:14;;;;;;;3.13;1.20;;;;;;;;;;4993059;28;20230;-57
2023/10/17 10:50:41;;;;;;;3.37;1.40;;;;;;;;;;4992674;28;20227;-57
2023/10/17 10:53:18;;;;;;;1.97;1.17;;;;;;;;;;4992758;28;20693;-57
2023/10/17 10:55:51;;;;;;;2.47;1.03;;;;;;;;;;5000487;28;20267;-57
2023/10/17 10:58:18;;;;;;;2.00;1.10;;;;;;;;;;5012444;28;20735;-57
2023/10/17 11:00:44;;;;;;;3.87;1.27;;;;;;;;;;5012387;28;20215;-57
2023/10/17 11:03:12;;;;;;;2.53;1.03;;;;;;;;;;5012449;28;20193;-57
2023/10/17 11:05:50;;;;;;;3.03;1.40;;;;;;;;;;5012459;28;20252;-57
2023/10/17 11:08:16;;;;;;;4.87;1.50;;;;;;;;;;5012531;28;20244;-57
2023/10/17 11:10:42;;;;;;;3.03;1.30;;;;;;;;;;5012443;28;20269;-57
2023/10/17 11:13:08;;;;;;;4.03;1.50;;;;;;;;;;5012124;28;20234;-57
2023/10/17 11:15:35;;;;;;;3.67;1.53;;;;;;;;;;5012263;28;20224;-57
2023/10/17 11:18:06;;;;;;;3.57;1.23;;;;;;;;;;5012374;28;20210;-56
2023/10/17 11:20:40;;;;;;;2.67;1.30;;;;;;;;;;5012318;28;20225;-57
2023/10/17 11:23:08;;;;;;;3.03;1.60;;;;;;;;;;5012276;28;20739;-56
2023/10/17 11:25:34;;;;;;;5.17;1.30;;;;;;;;;;5012244;28;20663;-57
2023/10/17 11:28:07;;;;;;;2.47;1.33;;;;;;;;;;5012314;28;20197;-57
2023/10/17 11:30:34;;;;;;;3.23;1.30;;;;;;;;;;5012294;28;20681;-57
2023/10/17 11:33:02;;;;;;;2.13;1.83;;;;;;;;;;5012104;28;20206;-57
2023/10/17 11:35:32;;;;;;;3.70;1.57;;;;;;;;;;5012223;28;20711;-57
2023/10/17 11:37:59;;;;;;;2.80;1.53;;;;;;;;;;5013179;28;20212;-57
2023/10/17 11:40:29;;;;;;;3.23;1.53;;;;;;;;;;5016197;28;20206;-57
2023/10/17 11:42:56;;;;;;;3.40;1.23;;;;;;;;;;5015915;28;20272;-57
2023/10/17 11:45:25;;;;;;;5.13;1.33;;;;;;;;;;5016177;28;20204;-57
2023/10/17 11:47:55;;;;;;;2.47;1.53;;;;;;;;;;5015861;28;20369;-57
2023/10/17 11:50:31;;;;;;;5.23;1.70;;;;;;;;;;5015960;28;20560;-57
2023/10/17 11:53:09;;;;;;;3.63;1.17;;;;;;;;;;5015819;28;20201;-57
2023/10/17 11:55:40;;;;;;;3.53;1.30;;;;;;;;;;5015871;28;20199;-57
2023/10/17 11:58:06;;;;;;;1.93;1.20;;;;;;;;;;5015930;28;20243;-57
2023/10/17 12:00:35;;;;;;;3.23;1.23;;;;;;;;;;5015690;28;20571;-57
2023/10/17 12:03:01;;;;;;;3.57;1.40;;;;;;;;;;5015714;28;20679;-57
2023/10/17 12:05:32;;;;;;;2.57;1.40;;;;;;;;;;5015382;28;20206;-57
2023/10/17 12:07:59;;;;;;;4.17;1.50;;;;;;;;;;5015508;28;20569;-57
2023/10/17 12:10:28;;;;;;;4.10;1.30;;;;;;;;;;5015782;28;20237;-57
2023/10/17 12:13:05;;;;;;;3.90;1.70;;;;;;;;;;5015435;28;20210;-57
2023/10/17 12:15:31;;;;;;;3.50;1.60;;;;;;;;;;5015648;28;20573;-57
2023/10/17 12:17:57;;;;;;;2.67;1.87;;;;;;;;;;5015450;28;20236;-56
2023/10/17 12:20:25;;;;;;;3.73;1.50;;;;;;;;;;5015507;28;20240;-57
2023/10/17 12:22:55;;;;;;;2.63;1.20;;;;;;;;;;5015376;28;20204;-57
2023/10/17 12:25:23;;;;;;;2.73;1.23;;;;;;;;;;5015368;28;20210;-56
2023/10/17 12:27:52;;;;;;;2.63;1.50;;;;;;;;;;5015203;28;20233;-56
2023/10/17 12:30:28;;;;;;;1.80;1.40;;;;;;;;;;5015305;28;20207;-56
2023/10/17 12:32:57;;;;;;;2.27;1.30;;;;;;;;;;5015049;28;20268;-56
2023/10/17 12:35:27;;;;;;;4.13;1.40;;;;;;;;;;5014979;28;20193;-56
2023/10/17 12:37:58;;;;;;;5.40;1.47;;;;;;;;;;5015015;28;20281;-57
2023/10/17 12:40:24;;;;;;;3.73;1.73;;;;;;;;;;5015122;28;20217;-56
2023/10/17 12:42:53;;;;;;;1.90;1.40;;;;;;;;;;5014767;28;20268;-58
2023/10/17 12:45:19;;;;;;;3.60;1.50;;;;;;;;;;5014931;28;20273;-56
2023/10/17 12:47:45;;;;;;;2.50;1.40;;;;;;;;;;5014907;28;20312;-56
2023/10/17 12:50:12;;;;;;;2.50;1.30;;;;;;;;;;5014403;28;20612;-56
2023/10/17 12:52:38;;;;;;;4.07;2.00;;;;;;;;;;5014845;28;21020;-57
2023/10/17 12:55:04;;;;;;;2.53;1.77;;;;;;;;;;5008587;28;20222;-56
2023/10/17 12:57:31;;;;;;;3.50;1.70;;;;;;;;;;5014975;28;20193;-56
2023/10/17 12:59:59;;;;;;;3.97;1.73;;;;;;;;;;5014719;28;20206;-57
2023/10/17 13:02:29;;;;;;;3.20;1.37;;;;;;;;;;5014655;28;20213;-56
2023/10/17 13:04:55;;;;;;;2.73;1.70;;;;;;;;;;5014641;28;20202;-56
2023/10/17 13:07:23;;;;;;;4.07;1.60;;;;;;;;;;5014578;28;20208;-57
2023/10/17 13:09:49;;;;;;;4.50;1.80;;;;;;;;;;5014445;28;20206;-56
2023/10/17 13:12:15;;;;;;;2.13;1.50;;;;;;;;;;5014619;28;20293;-56
2023/10/17 13:14:41;;;;;;;2.27;1.40;;;;;;;;;;5014338;28;20312;-56
2023/10/17 13:17:11;;;;;;;4.93;1.50;;;;;;;;;;5014487;28;20198;-56
2023/10/17 13:19:40;;;;;;;4.63;2.00;;;;;;;;;;5014043;28;20752;-56
2023/10/17 13:22:08;;;;;;;3.67;2.40;;;;;;;;;;5014310;28;20267;-56
2023/10/17 13:24:34;;;;;;;4.37;2.60;;;;;;;;;;5014305;28;20201;-56
2023/10/17 13:27:04;;;;;;;3.67;2.50;;;;;;;;;;5014241;28;20268;-56
2023/10/17 13:29:31;;;;;;;4.80;2.90;;;;;;;;;;5014142;28;20687;-56
2023/10/17 13:31:58;;;;;;;6.00;2.87;;;;;;;;;;5013940;28;20707;-57
2023/10/17 13:34:27;;;;;;;4.67;2.83;;;;;;;;;;5013691;28;20213;-57
2023/10/17 13:36:53;;;;;;;5.07;3.40;;;;;;;;;;5013818;28;20733;-56
2023/10/17 13:39:24;;;;;;;6.87;3.23;;;;;;;;;;5014044;28;20205;-57
2023/10/17 13:41:50;;;;;;;4.93;3.33;;;;;;;;;;5013793;28;20233;-57
2023/10/17 13:44:17;;;;;;;3.97;3.20;;;;;;;;;;5014077;28;20203;-56
2023/10/17 13:46:43;;;;;;;3.57;2.90;;;;;;;;;;5013757;28;20234;-56
2023/10/17 13:49:09;;;;;;;4.13;2.93;;;;;;;;;;5013565;28;20694;-57
2023/10/17 13:51:36;;;;;;;3.17;2.87;;;;;;;;;;5013708;28;20205;-56
2023/10/17 13:54:05;;;;;;;3.60;3.10;;;;;;;;;;5012426;28;20564;-56
2023/10/17 13:56:33;;;;;;;5.13;3.00;;;;;;;;;;4996703;28;20596;-56
2023/10/17 13:58:59;;;;;;;5.63;3.43;;;;;;;;;;4993755;28;20245;-56
2023/10/17 14:03:58;;;;;;;5.43;3.80;;;;;;;;;;4993015;28;20194;-56
2023/10/17 14:06:27;;;;;;;5.63;4.57;;;;;;;;;;4993461;28;20202;-56
2023/10/17 14:08:55;;;;;;;6.97;5.17;;;;;;;;;;4993447;28;20304;-56
2023/10/17 14:11:21;;;;;;;5.43;4.50;;;;;;;;;;4993323;28;20604;-56
2023/10/17 14:13:47;;;;;;;12.70;8.03;;;;;;;;;;4993308;28;20709;-56
2023/10/17 14:16:13;;;;;;;9.63;7.17;;;;;;;;;;4993276;28;20198;-56
2023/10/17 14:18:46;;;;;;;7.90;5.00;;;;;;;;;;4986391;28;21035;-57
2023/10/17 14:23:59;;;;;;;5.77;4.00;;;;;;;;;;4981452;28;21587;-57
2023/10/17 14:26:27;;;;;;;6.80;3.40;;;;;;;;;;4982883;28;20475;-56
2023/10/17 14:28:53;;;;;;;4.10;2.83;;;;;;;;;;4981214;28;20673;-56
2023/10/17 14:31:20;;;;;;;6.60;5.90;;;;;;;;;;4982726;28;20688;-56
2023/10/17 14:33:46;;;;;;;5.40;4.40;;;;;;;;;;4986077;28;20238;-56
2023/10/17 14:36:13;;;;;;;2.77;1.90;;;;;;;;;;4982750;28;20261;-56
2023/10/17 14:38:39;;;;;;;2.13;1.60;;;;;;;;;;4986020;28;20210;-56
2023/10/17 14:41:09;;;;;;;1.70;1.60;;;;;;;;;;4984361;28;20205;-56
2023/10/17 14:43:35;;;;;;;3.40;2.00;;;;;;;;;;4984228;28;20248;-56
2023/10/17 14:46:02;;;;;;;5.67;1.80;;;;;;;;;;4981061;28;20195;-56
2023/10/17 14:48:30;;;;;;;2.53;2.00;;;;;;;;;;4983322;28;20198;-56
2023/10/17 14:50:56;;;;;;;2.53;1.90;;;;;;;;;;4983672;28;20213;-56
2023/10/17 14:53:22;;;;;;;7.87;4.00;;;;;;;;;;4982825;28;20202;-56
2023/10/17 14:55:56;;;;;;;3.10;2.80;;;;;;;;;;4983115;28;20257;-55
2023/10/17 14:58:23;;;;;;;3.17;2.87;;;;;;;;;;4982938;28;20202;-56
2023/10/17 15:00:49;;;;;;;4.63;3.30;;;;;;;;;;4982714;28;20288;-56
2023/10/17 15:03:15;;;;;;;4.40;3.30;;;;;;;;;;4980899;28;20206;-56
2023/10/17 15:05:41;;;;;;;4.97;3.13;;;;;;;;;;4984226;28;20199;-56
2023/10/17 15:08:11;;;;;;;4.60;3.13;;;;;;;;;;4980910;28;20191;-56
2023/10/17 15:10:38;;;;;;;3.30;3.00;;;;;;;;;;4982597;28;20276;-56
2023/10/17 15:13:04;;;;;;;5.03;3.70;;;;;;;;;;4982383;28;20198;-56
2023/10/17 15:15:32;;;;;;;7.03;3.70;;;;;;;;;;4980890;28;20652;-55
2023/10/17 15:17:58;;;;;;;4.60;4.10;;;;;;;;;;5016866;28;20227;-56
2023/10/17 15:20:25;;;;;;;5.93;4.60;;;;;;;;;;5019252;28;20200;-56
2023/10/17 15:22:52;;;;;;;5.00;3.93;;;;;;;;;;5021138;28;20244;-56
2023/10/17 15:25:19;;;;;;;6.93;5.20;;;;;;;;;;5023249;28;20196;-56
2023/10/17 15:27:45;;;;;;;7.20;5.37;;;;;;;;;;5021496;28;20200;-56
2023/10/17 15:30:17;;;;;;;7.57;5.70;;;;;;;;;;5019597;28;20205;-56
2023/10/17 15:32:45;;;;;;;7.10;6.23;;;;;;;;;;5021335;28;20717;-55
2023/10/17 15:35:13;;;;;;;9.13;6.77;;;;;;;;;;5018585;28;20323;-56
2023/10/17 15:37:41;;;;;;;7.73;6.50;;;;;;;;;;4982423;28;20202;-56
2023/10/17 15:40:08;;;;;;;10.17;7.03;;;;;;;;;;4981920;28;20664;-56
2023/10/17 15:42:34;;;;;;;10.10;7.50;;;;;;;;;;4983535;28;20701;-56
2023/10/17 15:45:00;;;;;;;9.80;7.37;;;;;;;;;;4983822;28;20202;-56
2023/10/17 15:47:26;;;;;;;10.57;8.20;;;;;;;;;;4984052;28;20193;-56
2023/10/17 15:49:54;;;;;;;10.23;8.13;;;;;;;;;;4982131;28;20268;-56
2023/10/17 15:52:19;;;;;;;8.50;7.30;;;;;;;;;;4983936;28;20206;-56
2023/10/17 15:54:47;;;;;;;9.97;7.50;;;;;;;;;;4980383;28;20585;-56
2023/10/17 15:57:14;;;;;;;10.13;7.97;;;;;;;;;;4980630;28;20652;-56
2023/10/17 15:59:41;;;;;;;8.97;7.87;;;;;;;;;;4983938;28;20207;-56
2023/10/17 16:02:08;;;;;;;8.73;7.77;;;;;;;;;;4980192;28;20653;-56
2023/10/17 16:04:34;;;;;;;9.23;8.20;;;;;;;;;;4982120;28;20637;-56
2023/10/17 16:07:01;;;;;;;11.57;9.40;;;;;;;;;;4980171;28;20570;-55
2023/10/17 16:09:28;;;;;;;11.53;9.40;;;;;;;;;;4979762;28;20209;-56
2023/10/17 16:11:57;;;;;;;10.13;8.50;;;;;;;;;;4983576;28;20238;-56
2023/10/17 16:14:23;;;;;;;11.27;9.03;;;;;;;;;;4980187;28;20285;-56
2023/10/17 16:16:49;;;;;;;11.87;9.07;;;;;;;;;;4980668;28;20525;-56
2023/10/17 16:19:15;;;;;;;13.93;10.07;;;;;;;;;;4978717;28;20265;-56
2023/10/17 16:21:41;;;;;;;12.77;9.83;;;;;;;;;;4993186;28;20720;-56
2023/10/17 16:24:09;;;;;;;12.53;9.93;;;;;;;;;;5000235;28;20197;-56
2023/10/17 16:26:35;;;;;;;11.37;9.53;;;;;;;;;;5003142;28;20201;-56
2023/10/17 16:29:01;;;;;;;16.07;10.93;;;;;;;;;;5006701;28;20263;-56
2023/10/17 16:31:27;;;;;;;12.30;10.47;;;;;;;;;;5003137;28;20217;-56
2023/10/17 16:33:54;;;;;;;12.73;10.77;;;;;;;;;;5003016;28;20312;-56
2023/10/17 16:36:20;;;;;;;12.77;11.47;;;;;;;;;;5003268;28;20252;-56
2023/10/17 16:38:46;;;;;;;12.67;11.07;;;;;;;;;;5003182;28;20202;-55
2023/10/17 16:41:13;;;;;;;16.03;11.43;;;;;;;;;;5002887;28;20272;-55
2023/10/17 16:43:41;;;;;;;13.00;10.47;;;;;;;;;;5002924;28;20229;-55
2023/10/17 16:46:08;;;;;;;12.43;10.67;;;;;;;;;;5001184;28;20228;-55
2023/10/17 16:48:34;;;;;;;12.30;9.87;;;;;;;;;;5006434;28;20205;-55
2023/10/17 16:51:00;;;;;;;12.37;10.53;;;;;;;;;;5004509;28;20201;-55
2023/10/17 16:53:28;;;;;;;14.60;11.33;;;;;;;;;;5002878;28;20202;-55
2023/10/17 16:55:54;;;;;;;14.97;12.77;;;;;;;;;;5002753;28;20934;-55
2023/10/17 16:58:21;;;;;;;16.17;12.77;;;;;;;;;;5004718;28;20229;-55
2023/10/17 17:00:48;;;;;;;15.33;13.13;;;;;;;;;;5004490;28;20297;-55
2023/10/17 17:03:14;;;;;;;16.90;13.40;;;;;;;;;;5005990;28;20209;-55